sensor_id;sensor_type;location;lat;lon;timestamp;P1;durP1;ratioP1;P2;durP2;ratioP2
11921;SDS011;6021;51.182;3.160;2023-04-06T00:00:25;24.00;;;19.77;;
11921;SDS011;6021;51.182;3.160;2023-04-06T00:02:53;21.83;;;19.47;;
11921;SDS011;6021;51.182;3.160;2023-04-06T00:05:22;22.53;;;20.10;;
11921;SDS011;6021;51.182;3.160;2023-04-06T00:07:51;23.93;;;20.23;;
11921;SDS011;6021;51.182;3.160;2023-04-06T00:10:20;22.30;;;19.37;;
11921;SDS011;6021;51.182;3.160;2023-04-06T00:12:49;25.77;;;20.53;;
11921;SDS011;6021;51.182;3.160;2023-04-06T00:15:17;24.50;;;20.40;;
11921;SDS011;6021;51.182;3.160;2023-04-06T00:17:46;24.17;;;20.97;;
11921;SDS011;6021;51.182;3.160;2023-04-06T00:20:14;24.53;;;20.47;;
11921;SDS011;6021;51.182;3.160;2023-04-06T00:22:43;26.33;;;22.17;;
11921;SDS011;6021;51.182;3.160;2023-04-06T00:25:12;24.70;;;22.00;;
11921;SDS011;6021;51.182;3.160;2023-04-06T00:27:41;23.93;;;17.90;;
11921;SDS011;6021;51.182;3.160;2023-04-06T00:30:10;27.47;;;18.97;;
11921;SDS011;6021;51.182;3.160;2023-04-06T00:32:38;26.37;;;17.60;;
11921;SDS011;6021;51.182;3.160;2023-04-06T00:35:07;29.37;;;23.70;;
11921;SDS011;6021;51.182;3.160;2023-04-06T00:37:36;28.93;;;22.97;;
11921;SDS011;6021;51.182;3.160;2023-04-06T00:40:04;28.93;;;23.57;;
11921;SDS011;6021;51.182;3.160;2023-04-06T00:42:33;31.70;;;24.13;;
11921;SDS011;6021;51.182;3.160;2023-04-06T00:45:02;28.23;;;22.67;;
11921;SDS011;6021;51.182;3.160;2023-04-06T00:47:31;30.33;;;22.73;;
11921;SDS011;6021;51.182;3.160;2023-04-06T00:50:01;26.70;;;22.53;;
11921;SDS011;6021;51.182;3.160;2023-04-06T00:52:29;28.60;;;22.50;;
11921;SDS011;6021;51.182;3.160;2023-04-06T00:54:57;29.80;;;22.73;;
11921;SDS011;6021;51.182;3.160;2023-04-06T00:57:26;30.20;;;24.50;;
11921;SDS011;6021;51.182;3.160;2023-04-06T00:59:54;28.90;;;23.90;;
11921;SDS011;6021;51.182;3.160;2023-04-06T01:02:23;30.20;;;23.63;;
11921;SDS011;6021;51.182;3.160;2023-04-06T01:04:52;28.73;;;19.23;;
11921;SDS011;6021;51.182;3.160;2023-04-06T01:07:21;26.60;;;23.10;;
11921;SDS011;6021;51.182;3.160;2023-04-06T01:09:49;26.67;;;22.23;;
11921;SDS011;6021;51.182;3.160;2023-04-06T01:12:19;26.87;;;22.53;;
11921;SDS011;6021;51.182;3.160;2023-04-06T01:14:48;26.33;;;17.87;;
11921;SDS011;6021;51.182;3.160;2023-04-06T01:17:16;25.90;;;17.43;;
11921;SDS011;6021;51.182;3.160;2023-04-06T01:19:45;27.83;;;22.07;;
11921;SDS011;6021;51.182;3.160;2023-04-06T01:22:16;26.10;;;16.60;;
11921;SDS011;6021;51.182;3.160;2023-04-06T01:24:44;23.00;;;19.53;;
11921;SDS011;6021;51.182;3.160;2023-04-06T01:27:13;24.80;;;20.47;;
11921;SDS011;6021;51.182;3.160;2023-04-06T01:29:41;23.73;;;20.33;;
11921;SDS011;6021;51.182;3.160;2023-04-06T01:32:10;24.93;;;21.00;;
11921;SDS011;6021;51.182;3.160;2023-04-06T01:34:38;22.70;;;19.33;;
11921;SDS011;6021;51.182;3.160;2023-04-06T01:37:07;25.93;;;20.33;;
11921;SDS011;6021;51.182;3.160;2023-04-06T01:39:35;23.20;;;18.57;;
11921;SDS011;6021;51.182;3.160;2023-04-06T01:42:03;23.70;;;19.40;;
11921;SDS011;6021;51.182;3.160;2023-04-06T01:44:32;27.03;;;20.70;;
11921;SDS011;6021;51.182;3.160;2023-04-06T01:47:01;22.43;;;18.50;;
11921;SDS011;6021;51.182;3.160;2023-04-06T01:49:29;23.87;;;19.03;;
11921;SDS011;6021;51.182;3.160;2023-04-06T01:51:58;24.30;;;19.33;;
11921;SDS011;6021;51.182;3.160;2023-04-06T01:54:26;25.07;;;20.57;;
11921;SDS011;6021;51.182;3.160;2023-04-06T01:56:54;24.40;;;19.33;;
11921;SDS011;6021;51.182;3.160;2023-04-06T01:59:23;22.80;;;18.50;;
11921;SDS011;6021;51.182;3.160;2023-04-06T02:01:51;26.07;;;19.07;;
11921;SDS011;6021;51.182;3.160;2023-04-06T02:04:20;22.63;;;18.77;;
11921;SDS011;6021;51.182;3.160;2023-04-06T02:06:48;23.57;;;19.57;;
11921;SDS011;6021;51.182;3.160;2023-04-06T02:09:17;24.63;;;19.83;;
11921;SDS011;6021;51.182;3.160;2023-04-06T02:11:45;22.70;;;18.70;;
11921;SDS011;6021;51.182;3.160;2023-04-06T02:14:14;21.73;;;18.67;;
11921;SDS011;6021;51.182;3.160;2023-04-06T02:16:42;24.87;;;19.70;;
11921;SDS011;6021;51.182;3.160;2023-04-06T02:19:11;23.40;;;19.30;;
11921;SDS011;6021;51.182;3.160;2023-04-06T02:21:39;25.37;;;19.77;;
11921;SDS011;6021;51.182;3.160;2023-04-06T02:24:07;25.97;;;20.27;;
11921;SDS011;6021;51.182;3.160;2023-04-06T02:26:36;23.03;;;19.43;;
11921;SDS011;6021;51.182;3.160;2023-04-06T02:29:04;22.57;;;20.07;;
11921;SDS011;6021;51.182;3.160;2023-04-06T02:31:33;24.13;;;20.73;;
11921;SDS011;6021;51.182;3.160;2023-04-06T02:34:03;25.07;;;21.63;;
11921;SDS011;6021;51.182;3.160;2023-04-06T02:36:31;23.67;;;19.60;;
11921;SDS011;6021;51.182;3.160;2023-04-06T02:38:59;23.83;;;20.57;;
11921;SDS011;6021;51.182;3.160;2023-04-06T02:41:28;22.53;;;19.97;;
11921;SDS011;6021;51.182;3.160;2023-04-06T02:43:57;24.90;;;21.07;;
11921;SDS011;6021;51.182;3.160;2023-04-06T02:46:25;25.90;;;20.57;;
11921;SDS011;6021;51.182;3.160;2023-04-06T02:48:54;22.70;;;20.17;;
11921;SDS011;6021;51.182;3.160;2023-04-06T02:51:22;23.50;;;20.07;;
11921;SDS011;6021;51.182;3.160;2023-04-06T02:53:51;26.20;;;21.20;;
11921;SDS011;6021;51.182;3.160;2023-04-06T02:56:20;25.30;;;21.03;;
11921;SDS011;6021;51.182;3.160;2023-04-06T02:58:48;24.77;;;21.17;;
11921;SDS011;6021;51.182;3.160;2023-04-06T03:01:17;26.27;;;20.37;;
11921;SDS011;6021;51.182;3.160;2023-04-06T03:03:45;21.70;;;19.27;;
11921;SDS011;6021;51.182;3.160;2023-04-06T03:06:14;22.57;;;19.53;;
11921;SDS011;6021;51.182;3.160;2023-04-06T03:08:42;23.90;;;20.77;;
11921;SDS011;6021;51.182;3.160;2023-04-06T03:11:11;22.43;;;19.60;;
11921;SDS011;6021;51.182;3.160;2023-04-06T03:13:40;24.20;;;21.10;;
11921;SDS011;6021;51.182;3.160;2023-04-06T03:16:08;22.83;;;19.83;;
11921;SDS011;6021;51.182;3.160;2023-04-06T03:18:37;22.67;;;19.97;;
11921;SDS011;6021;51.182;3.160;2023-04-06T03:21:05;24.63;;;20.40;;
11921;SDS011;6021;51.182;3.160;2023-04-06T03:23:33;23.30;;;20.80;;
11921;SDS011;6021;51.182;3.160;2023-04-06T03:26:02;24.37;;;20.63;;
11921;SDS011;6021;51.182;3.160;2023-04-06T03:28:31;23.67;;;21.10;;
11921;SDS011;6021;51.182;3.160;2023-04-06T03:30:59;24.03;;;19.80;;
11921;SDS011;6021;51.182;3.160;2023-04-06T03:33:27;24.03;;;20.63;;
11921;SDS011;6021;51.182;3.160;2023-04-06T03:35:56;25.07;;;20.83;;
11921;SDS011;6021;51.182;3.160;2023-04-06T03:38:24;23.23;;;20.57;;
11921;SDS011;6021;51.182;3.160;2023-04-06T03:40:53;25.97;;;21.53;;
11921;SDS011;6021;51.182;3.160;2023-04-06T03:43:21;25.87;;;20.20;;
11921;SDS011;6021;51.182;3.160;2023-04-06T03:45:50;24.33;;;21.53;;
11921;SDS011;6021;51.182;3.160;2023-04-06T03:48:18;24.23;;;20.97;;
11921;SDS011;6021;51.182;3.160;2023-04-06T03:50:46;23.53;;;20.77;;
11921;SDS011;6021;51.182;3.160;2023-04-06T03:53:15;22.50;;;20.10;;
11921;SDS011;6021;51.182;3.160;2023-04-06T03:55:43;24.27;;;20.33;;
11921;SDS011;6021;51.182;3.160;2023-04-06T03:58:11;24.43;;;20.17;;
11921;SDS011;6021;51.182;3.160;2023-04-06T04:00:40;25.27;;;21.53;;
11921;SDS011;6021;51.182;3.160;2023-04-06T04:03:08;26.23;;;21.73;;
11921;SDS011;6021;51.182;3.160;2023-04-06T04:05:37;24.53;;;21.00;;
11921;SDS011;6021;51.182;3.160;2023-04-06T04:08:05;22.53;;;19.60;;
11921;SDS011;6021;51.182;3.160;2023-04-06T04:10:34;24.30;;;19.90;;
11921;SDS011;6021;51.182;3.160;2023-04-06T04:13:02;22.40;;;18.60;;
11921;SDS011;6021;51.182;3.160;2023-04-06T04:15:30;23.20;;;18.50;;
11921;SDS011;6021;51.182;3.160;2023-04-06T04:18:04;19.80;;;17.70;;
11921;SDS011;6021;51.182;3.160;2023-04-06T04:20:29;19.83;;;17.70;;
11921;SDS011;6021;51.182;3.160;2023-04-06T04:22:58;19.37;;;17.30;;
11921;SDS011;6021;51.182;3.160;2023-04-06T04:25:26;18.50;;;16.60;;
11921;SDS011;6021;51.182;3.160;2023-04-06T04:27:54;17.63;;;15.83;;
11921;SDS011;6021;51.182;3.160;2023-04-06T04:30:23;18.20;;;16.30;;
11921;SDS011;6021;51.182;3.160;2023-04-06T04:32:51;19.17;;;16.20;;
11921;SDS011;6021;51.182;3.160;2023-04-06T04:35:20;17.93;;;15.70;;
11921;SDS011;6021;51.182;3.160;2023-04-06T04:37:48;15.97;;;14.27;;
11921;SDS011;6021;51.182;3.160;2023-04-06T04:40:17;15.83;;;13.77;;
11921;SDS011;6021;51.182;3.160;2023-04-06T04:42:45;14.70;;;13.20;;
11921;SDS011;6021;51.182;3.160;2023-04-06T04:45:13;14.33;;;12.93;;
11921;SDS011;6021;51.182;3.160;2023-04-06T04:47:42;16.57;;;13.53;;
11921;SDS011;6021;51.182;3.160;2023-04-06T04:50:10;13.07;;;11.67;;
11921;SDS011;6021;51.182;3.160;2023-04-06T04:52:39;13.93;;;12.50;;
11921;SDS011;6021;51.182;3.160;2023-04-06T04:55:07;13.37;;;11.97;;
11921;SDS011;6021;51.182;3.160;2023-04-06T04:57:36;14.00;;;12.27;;
11921;SDS011;6021;51.182;3.160;2023-04-06T05:00:04;14.93;;;12.37;;
11921;SDS011;6021;51.182;3.160;2023-04-06T05:02:33;15.40;;;12.50;;
11921;SDS011;6021;51.182;3.160;2023-04-06T05:05:02;14.97;;;12.97;;
11921;SDS011;6021;51.182;3.160;2023-04-06T05:07:30;14.73;;;11.90;;
11921;SDS011;6021;51.182;3.160;2023-04-06T05:09:59;14.07;;;11.40;;
11921;SDS011;6021;51.182;3.160;2023-04-06T05:12:27;12.43;;;11.07;;
11921;SDS011;6021;51.182;3.160;2023-04-06T05:14:56;13.03;;;11.63;;
11921;SDS011;6021;51.182;3.160;2023-04-06T05:17:24;14.23;;;11.73;;
11921;SDS011;6021;51.182;3.160;2023-04-06T05:19:52;12.80;;;11.07;;
11921;SDS011;6021;51.182;3.160;2023-04-06T05:22:21;12.20;;;10.90;;
11921;SDS011;6021;51.182;3.160;2023-04-06T05:24:50;12.80;;;11.27;;
11921;SDS011;6021;51.182;3.160;2023-04-06T05:27:18;13.30;;;11.03;;
11921;SDS011;6021;51.182;3.160;2023-04-06T05:29:47;12.33;;;10.90;;
11921;SDS011;6021;51.182;3.160;2023-04-06T05:32:15;13.13;;;11.03;;
11921;SDS011;6021;51.182;3.160;2023-04-06T05:34:45;12.67;;;11.07;;
11921;SDS011;6021;51.182;3.160;2023-04-06T05:37:13;12.63;;;11.33;;
11921;SDS011;6021;51.182;3.160;2023-04-06T05:39:42;12.73;;;10.80;;
11921;SDS011;6021;51.182;3.160;2023-04-06T05:42:10;13.43;;;10.70;;
11921;SDS011;6021;51.182;3.160;2023-04-06T05:44:39;11.97;;;10.27;;
11921;SDS011;6021;51.182;3.160;2023-04-06T05:47:08;13.67;;;11.40;;
11921;SDS011;6021;51.182;3.160;2023-04-06T05:49:36;13.00;;;11.23;;
11921;SDS011;6021;51.182;3.160;2023-04-06T05:52:05;12.33;;;10.77;;
11921;SDS011;6021;51.182;3.160;2023-04-06T05:54:34;13.43;;;11.00;;
11921;SDS011;6021;51.182;3.160;2023-04-06T05:57:04;11.90;;;10.47;;
11921;SDS011;6021;51.182;3.160;2023-04-06T05:59:33;12.70;;;11.27;;
11921;SDS011;6021;51.182;3.160;2023-04-06T06:02:01;13.47;;;10.97;;
11921;SDS011;6021;51.182;3.160;2023-04-06T06:04:32;12.00;;;10.80;;
11921;SDS011;6021;51.182;3.160;2023-04-06T06:07:01;14.17;;;10.67;;
11921;SDS011;6021;51.182;3.160;2023-04-06T06:09:30;12.10;;;10.13;;
11921;SDS011;6021;51.182;3.160;2023-04-06T06:12:01;11.93;;;10.20;;
11921;SDS011;6021;51.182;3.160;2023-04-06T06:14:30;12.83;;;10.47;;
11921;SDS011;6021;51.182;3.160;2023-04-06T06:17:00;13.17;;;9.83;;
11921;SDS011;6021;51.182;3.160;2023-04-06T06:19:29;11.77;;;9.93;;
11921;SDS011;6021;51.182;3.160;2023-04-06T06:22:03;12.70;;;9.77;;
11921;SDS011;6021;51.182;3.160;2023-04-06T06:24:32;10.90;;;9.73;;
11921;SDS011;6021;51.182;3.160;2023-04-06T06:27:01;10.93;;;9.83;;
11921;SDS011;6021;51.182;3.160;2023-04-06T06:29:31;12.43;;;10.40;;
11921;SDS011;6021;51.182;3.160;2023-04-06T06:32:00;10.90;;;9.80;;
11921;SDS011;6021;51.182;3.160;2023-04-06T06:34:30;10.67;;;9.67;;
11921;SDS011;6021;51.182;3.160;2023-04-06T06:37:06;11.47;;;9.77;;
11921;SDS011;6021;51.182;3.160;2023-04-06T06:39:34;11.23;;;9.63;;
11921;SDS011;6021;51.182;3.160;2023-04-06T06:42:05;12.90;;;9.70;;
11921;SDS011;6021;51.182;3.160;2023-04-06T06:44:39;10.30;;;9.27;;
11921;SDS011;6021;51.182;3.160;2023-04-06T06:47:09;11.27;;;9.33;;
11921;SDS011;6021;51.182;3.160;2023-04-06T06:49:39;11.43;;;9.33;;
11921;SDS011;6021;51.182;3.160;2023-04-06T06:52:08;10.40;;;9.37;;
11921;SDS011;6021;51.182;3.160;2023-04-06T06:54:46;10.30;;;9.20;;
11921;SDS011;6021;51.182;3.160;2023-04-06T06:57:18;12.03;;;9.03;;
11921;SDS011;6021;51.182;3.160;2023-04-06T06:59:46;10.27;;;9.00;;
11921;SDS011;6021;51.182;3.160;2023-04-06T07:02:15;11.50;;;8.73;;
11921;SDS011;6021;51.182;3.160;2023-04-06T07:04:47;11.53;;;8.87;;
11921;SDS011;6021;51.182;3.160;2023-04-06T07:07:15;10.87;;;9.10;;
11921;SDS011;6021;51.182;3.160;2023-04-06T07:09:43;10.73;;;9.23;;
11921;SDS011;6021;51.182;3.160;2023-04-06T07:12:12;10.73;;;9.57;;
11921;SDS011;6021;51.182;3.160;2023-04-06T07:14:40;10.60;;;9.20;;
11921;SDS011;6021;51.182;3.160;2023-04-06T07:17:09;10.67;;;9.23;;
11921;SDS011;6021;51.182;3.160;2023-04-06T07:19:37;10.83;;;8.97;;
11921;SDS011;6021;51.182;3.160;2023-04-06T07:22:07;12.77;;;9.90;;
11921;SDS011;6021;51.182;3.160;2023-04-06T07:24:36;11.43;;;10.23;;
11921;SDS011;6021;51.182;3.160;2023-04-06T07:27:07;11.53;;;10.33;;
11921;SDS011;6021;51.182;3.160;2023-04-06T07:29:36;13.17;;;11.43;;
11921;SDS011;6021;51.182;3.160;2023-04-06T07:32:04;13.53;;;11.90;;
11921;SDS011;6021;51.182;3.160;2023-04-06T07:34:36;13.03;;;11.63;;
11921;SDS011;6021;51.182;3.160;2023-04-06T07:37:04;13.90;;;12.43;;
11921;SDS011;6021;51.182;3.160;2023-04-06T07:42:09;15.30;;;12.80;;
11921;SDS011;6021;51.182;3.160;2023-04-06T07:44:38;14.40;;;12.87;;
11921;SDS011;6021;51.182;3.160;2023-04-06T07:47:06;14.33;;;12.83;;
11921;SDS011;6021;51.182;3.160;2023-04-06T07:49:36;17.60;;;12.90;;
11921;SDS011;6021;51.182;3.160;2023-04-06T07:52:05;16.83;;;13.03;;
11921;SDS011;6021;51.182;3.160;2023-04-06T07:54:33;14.43;;;12.93;;
11921;SDS011;6021;51.182;3.160;2023-04-06T07:57:03;16.67;;;12.90;;
11921;SDS011;6021;51.182;3.160;2023-04-06T07:59:32;15.63;;;12.20;;
11921;SDS011;6021;51.182;3.160;2023-04-06T08:02:00;14.10;;;12.60;;
11921;SDS011;6021;51.182;3.160;2023-04-06T08:04:29;14.77;;;12.70;;
11921;SDS011;6021;51.182;3.160;2023-04-06T08:06:59;15.67;;;13.07;;
11921;SDS011;6021;51.182;3.160;2023-04-06T08:09:27;16.63;;;13.60;;
11921;SDS011;6021;51.182;3.160;2023-04-06T08:11:56;16.67;;;14.63;;
11921;SDS011;6021;51.182;3.160;2023-04-06T08:14:27;16.50;;;14.03;;
11921;SDS011;6021;51.182;3.160;2023-04-06T08:16:55;17.33;;;15.50;;
11921;SDS011;6021;51.182;3.160;2023-04-06T08:19:23;17.07;;;14.97;;
11921;SDS011;6021;51.182;3.160;2023-04-06T08:21:52;17.40;;;15.57;;
11921;SDS011;6021;51.182;3.160;2023-04-06T08:24:41;19.20;;;15.53;;
11921;SDS011;6021;51.182;3.160;2023-04-06T08:27:11;19.03;;;16.17;;
11921;SDS011;6021;51.182;3.160;2023-04-06T08:29:41;22.27;;;17.57;;
11921;SDS011;6021;51.182;3.160;2023-04-06T08:32:10;21.37;;;17.63;;
11921;SDS011;6021;51.182;3.160;2023-04-06T08:34:38;22.70;;;17.80;;
11921;SDS011;6021;51.182;3.160;2023-04-06T08:37:07;21.40;;;17.07;;
11921;SDS011;6021;51.182;3.160;2023-04-06T08:39:40;21.13;;;18.07;;
11921;SDS011;6021;51.182;3.160;2023-04-06T08:42:19;21.83;;;18.27;;
11921;SDS011;6021;51.182;3.160;2023-04-06T08:44:50;23.87;;;18.70;;
11921;SDS011;6021;51.182;3.160;2023-04-06T08:47:26;24.60;;;19.67;;
11921;SDS011;6021;51.182;3.160;2023-04-06T08:50:13;23.20;;;19.13;;
11921;SDS011;6021;51.182;3.160;2023-04-06T08:52:46;25.33;;;21.23;;
11921;SDS011;6021;51.182;3.160;2023-04-06T08:55:16;23.97;;;20.47;;
11921;SDS011;6021;51.182;3.160;2023-04-06T08:57:55;23.27;;;20.77;;
11921;SDS011;6021;51.182;3.160;2023-04-06T09:00:33;22.30;;;19.90;;
11921;SDS011;6021;51.182;3.160;2023-04-06T09:03:06;23.83;;;20.93;;
11921;SDS011;6021;51.182;3.160;2023-04-06T09:05:39;25.13;;;21.27;;
11921;SDS011;6021;51.182;3.160;2023-04-06T09:08:08;23.53;;;20.50;;
11921;SDS011;6021;51.182;3.160;2023-04-06T09:10:40;25.03;;;21.37;;
11921;SDS011;6021;51.182;3.160;2023-04-06T09:13:16;25.10;;;22.13;;
11921;SDS011;6021;51.182;3.160;2023-04-06T09:18:47;23.87;;;20.80;;
11921;SDS011;6021;51.182;3.160;2023-04-06T09:21:19;26.37;;;22.47;;
11921;SDS011;6021;51.182;3.160;2023-04-06T09:24:06;23.27;;;20.73;;
11921;SDS011;6021;51.182;3.160;2023-04-06T09:26:55;22.00;;;19.60;;
11921;SDS011;6021;51.182;3.160;2023-04-06T09:29:31;22.13;;;19.83;;
11921;SDS011;6021;51.182;3.160;2023-04-06T09:32:02;22.67;;;19.53;;
11921;SDS011;6021;51.182;3.160;2023-04-06T09:34:46;22.77;;;20.33;;
11921;SDS011;6021;51.182;3.160;2023-04-06T09:37:20;22.33;;;19.00;;
11921;SDS011;6021;51.182;3.160;2023-04-06T09:40:01;21.87;;;19.57;;
11921;SDS011;6021;51.182;3.160;2023-04-06T09:42:24;20.77;;;18.30;;
11921;SDS011;6021;51.182;3.160;2023-04-06T09:44:57;20.83;;;18.13;;
11921;SDS011;6021;51.182;3.160;2023-04-06T09:47:26;22.30;;;17.90;;
11921;SDS011;6021;51.182;3.160;2023-04-06T09:49:57;20.67;;;18.07;;
11921;SDS011;6021;51.182;3.160;2023-04-06T09:52:31;20.80;;;18.63;;
11921;SDS011;6021;51.182;3.160;2023-04-06T09:55:05;20.10;;;17.60;;
11921;SDS011;6021;51.182;3.160;2023-04-06T09:57:46;19.50;;;17.43;;
11921;SDS011;6021;51.182;3.160;2023-04-06T10:00:29;20.13;;;18.03;;
11921;SDS011;6021;51.182;3.160;2023-04-06T10:05:55;19.07;;;17.07;;
11921;SDS011;6021;51.182;3.160;2023-04-06T10:08:39;18.50;;;16.43;;
11921;SDS011;6021;51.182;3.160;2023-04-06T10:11:14;17.50;;;15.60;;
11921;SDS011;6021;51.182;3.160;2023-04-06T10:13:51;18.60;;;16.70;;
11921;SDS011;6021;51.182;3.160;2023-04-06T10:16:16;17.07;;;15.37;;
11921;SDS011;6021;51.182;3.160;2023-04-06T10:18:52;16.50;;;14.80;;
11921;SDS011;6021;51.182;3.160;2023-04-06T10:21:19;18.23;;;16.43;;
11921;SDS011;6021;51.182;3.160;2023-04-06T10:23:49;18.10;;;16.23;;
11921;SDS011;6021;51.182;3.160;2023-04-06T10:26:22;17.73;;;15.93;;
11921;SDS011;6021;51.182;3.160;2023-04-06T10:28:50;17.27;;;15.57;;
11921;SDS011;6021;51.182;3.160;2023-04-06T10:31:31;18.27;;;16.47;;
11921;SDS011;6021;51.182;3.160;2023-04-06T10:33:56;16.00;;;13.40;;
11921;SDS011;6021;51.182;3.160;2023-04-06T10:36:26;14.37;;;12.63;;
11921;SDS011;6021;51.182;3.160;2023-04-06T10:39:02;16.33;;;14.73;;
11921;SDS011;6021;51.182;3.160;2023-04-06T10:41:34;18.00;;;16.30;;
11921;SDS011;6021;51.182;3.160;2023-04-06T10:44:04;17.37;;;15.67;;
11921;SDS011;6021;51.182;3.160;2023-04-06T10:46:33;16.93;;;15.23;;
11921;SDS011;6021;51.182;3.160;2023-04-06T10:49:11;16.57;;;14.97;;
11921;SDS011;6021;51.182;3.160;2023-04-06T10:51:40;17.87;;;16.13;;
11921;SDS011;6021;51.182;3.160;2023-04-06T10:54:13;18.03;;;16.30;;
11921;SDS011;6021;51.182;3.160;2023-04-06T10:56:40;19.57;;;17.73;;
11921;SDS011;6021;51.182;3.160;2023-04-06T10:59:09;20.13;;;18.13;;
11921;SDS011;6021;51.182;3.160;2023-04-06T11:01:39;19.30;;;17.50;;
11921;SDS011;6021;51.182;3.160;2023-04-06T11:04:10;16.13;;;14.43;;
11921;SDS011;6021;51.182;3.160;2023-04-06T11:06:47;18.37;;;16.57;;
11921;SDS011;6021;51.182;3.160;2023-04-06T11:09:27;20.37;;;18.30;;
11921;SDS011;6021;51.182;3.160;2023-04-06T11:11:55;18.87;;;17.07;;
11921;SDS011;6021;51.182;3.160;2023-04-06T11:14:24;17.10;;;15.50;;
11921;SDS011;6021;51.182;3.160;2023-04-06T11:16:52;17.27;;;15.57;;
11921;SDS011;6021;51.182;3.160;2023-04-06T11:19:31;17.53;;;15.83;;
11921;SDS011;6021;51.182;3.160;2023-04-06T11:22:07;18.23;;;16.43;;
11921;SDS011;6021;51.182;3.160;2023-04-06T11:24:31;17.73;;;16.03;;
11921;SDS011;6021;51.182;3.160;2023-04-06T11:26:59;17.80;;;16.10;;
11921;SDS011;6021;51.182;3.160;2023-04-06T11:29:28;18.00;;;16.30;;
11921;SDS011;6021;51.182;3.160;2023-04-06T11:31:59;17.90;;;16.30;;
11921;SDS011;6021;51.182;3.160;2023-04-06T11:34:29;19.10;;;17.23;;
11921;SDS011;6021;51.182;3.160;2023-04-06T11:36:58;18.07;;;16.27;;
11921;SDS011;6021;51.182;3.160;2023-04-06T11:39:37;18.87;;;17.07;;
11921;SDS011;6021;51.182;3.160;2023-04-06T11:42:00;19.00;;;17.20;;
11921;SDS011;6021;51.182;3.160;2023-04-06T11:47:03;21.67;;;19.67;;
11921;SDS011;6021;51.182;3.160;2023-04-06T11:49:33;18.17;;;15.33;;
11921;SDS011;6021;51.182;3.160;2023-04-06T11:52:15;18.57;;;15.00;;
11921;SDS011;6021;51.182;3.160;2023-04-06T11:54:54;20.30;;;18.37;;
11921;SDS011;6021;51.182;3.160;2023-04-06T11:57:23;22.67;;;20.53;;
11921;SDS011;6021;51.182;3.160;2023-04-06T11:59:52;21.00;;;18.90;;
11921;SDS011;6021;51.182;3.160;2023-04-06T12:02:27;20.73;;;18.80;;
11921;SDS011;6021;51.182;3.160;2023-04-06T12:04:56;19.40;;;17.57;;
11921;SDS011;6021;51.182;3.160;2023-04-06T12:07:24;19.27;;;17.47;;
11921;SDS011;6021;51.182;3.160;2023-04-06T12:09:52;19.77;;;17.97;;
11921;SDS011;6021;51.182;3.160;2023-04-06T12:12:22;19.70;;;17.80;;
11921;SDS011;6021;51.182;3.160;2023-04-06T12:14:51;20.27;;;18.27;;
11921;SDS011;6021;51.182;3.160;2023-04-06T12:17:19;19.13;;;17.40;;
11921;SDS011;6021;51.182;3.160;2023-04-06T12:19:47;18.27;;;16.47;;
11921;SDS011;6021;51.182;3.160;2023-04-06T12:22:17;18.47;;;16.67;;
11921;SDS011;6021;51.182;3.160;2023-04-06T12:24:46;17.03;;;15.50;;
11921;SDS011;6021;51.182;3.160;2023-04-06T12:27:14;17.10;;;15.57;;
11921;SDS011;6021;51.182;3.160;2023-04-06T12:29:44;16.00;;;14.50;;
11921;SDS011;6021;51.182;3.160;2023-04-06T12:32:14;16.57;;;14.97;;
11921;SDS011;6021;51.182;3.160;2023-04-06T12:34:43;17.47;;;15.80;;
11921;SDS011;6021;51.182;3.160;2023-04-06T12:37:11;17.70;;;16.00;;
11921;SDS011;6021;51.182;3.160;2023-04-06T12:39:40;17.03;;;15.53;;
11921;SDS011;6021;51.182;3.160;2023-04-06T12:42:10;16.70;;;15.17;;
11921;SDS011;6021;51.182;3.160;2023-04-06T12:44:40;16.73;;;15.23;;
11921;SDS011;6021;51.182;3.160;2023-04-06T12:47:09;16.90;;;15.40;;
11921;SDS011;6021;51.182;3.160;2023-04-06T12:49:38;15.90;;;14.50;;
11921;SDS011;6021;51.182;3.160;2023-04-06T12:52:08;17.13;;;15.53;;
11921;SDS011;6021;51.182;3.160;2023-04-06T12:54:36;17.40;;;15.80;;
11921;SDS011;6021;51.182;3.160;2023-04-06T12:57:05;16.47;;;14.97;;
11921;SDS011;6021;51.182;3.160;2023-04-06T12:59:33;17.80;;;16.30;;
11921;SDS011;6021;51.182;3.160;2023-04-06T13:02:03;19.73;;;17.90;;
11921;SDS011;6021;51.182;3.160;2023-04-06T13:04:32;17.67;;;16.13;;
11921;SDS011;6021;51.182;3.160;2023-04-06T13:07:00;16.63;;;15.23;;
11921;SDS011;6021;51.182;3.160;2023-04-06T13:09:28;17.60;;;15.90;;
11921;SDS011;6021;51.182;3.160;2023-04-06T13:11:57;16.70;;;15.10;;
11921;SDS011;6021;51.182;3.160;2023-04-06T13:14:25;15.70;;;14.30;;
11921;SDS011;6021;51.182;3.160;2023-04-06T13:16:54;15.43;;;14.03;;
11921;SDS011;6021;51.182;3.160;2023-04-06T13:19:22;15.00;;;13.70;;
11921;SDS011;6021;51.182;3.160;2023-04-06T13:21:51;14.83;;;13.53;;
11921;SDS011;6021;51.182;3.160;2023-04-06T13:24:19;13.47;;;12.27;;
11921;SDS011;6021;51.182;3.160;2023-04-06T13:26:49;14.13;;;12.87;;
11921;SDS011;6021;51.182;3.160;2023-04-06T13:29:17;10.27;;;9.17;;
11921;SDS011;6021;51.182;3.160;2023-04-06T13:31:47;8.83;;;7.70;;
11921;SDS011;6021;51.182;3.160;2023-04-06T13:34:15;9.57;;;7.23;;
11921;SDS011;6021;51.182;3.160;2023-04-06T13:36:44;9.27;;;8.20;;
11921;SDS011;6021;51.182;3.160;2023-04-06T13:39:12;10.30;;;6.50;;
11921;SDS011;6021;51.182;3.160;2023-04-06T13:41:40;7.17;;;6.27;;
11921;SDS011;6021;51.182;3.160;2023-04-06T13:44:11;7.03;;;5.70;;
11921;SDS011;6021;51.182;3.160;2023-04-06T13:46:39;6.47;;;5.57;;
11921;SDS011;6021;51.182;3.160;2023-04-06T13:49:07;6.57;;;5.87;;
11921;SDS011;6021;51.182;3.160;2023-04-06T13:51:36;6.97;;;5.53;;
11921;SDS011;6021;51.182;3.160;2023-04-06T13:54:04;6.33;;;5.50;;
11921;SDS011;6021;51.182;3.160;2023-04-06T13:56:32;6.53;;;5.70;;
11921;SDS011;6021;51.182;3.160;2023-04-06T13:59:02;8.57;;;5.87;;
11921;SDS011;6021;51.182;3.160;2023-04-06T14:01:30;6.47;;;5.33;;
11921;SDS011;6021;51.182;3.160;2023-04-06T14:03:59;6.57;;;5.33;;
11921;SDS011;6021;51.182;3.160;2023-04-06T14:06:27;7.00;;;6.07;;
11921;SDS011;6021;51.182;3.160;2023-04-06T14:08:56;8.60;;;6.03;;
11921;SDS011;6021;51.182;3.160;2023-04-06T14:11:24;6.83;;;5.53;;
11921;SDS011;6021;51.182;3.160;2023-04-06T14:13:53;11.33;;;6.57;;
11921;SDS011;6021;51.182;3.160;2023-04-06T14:16:22;10.37;;;7.93;;
11921;SDS011;6021;51.182;3.160;2023-04-06T14:18:51;12.27;;;6.30;;
11921;SDS011;6021;51.182;3.160;2023-04-06T14:21:20;10.90;;;7.70;;
11921;SDS011;6021;51.182;3.160;2023-04-06T14:23:48;11.97;;;6.30;;
11921;SDS011;6021;51.182;3.160;2023-04-06T14:26:17;11.57;;;7.80;;
11921;SDS011;6021;51.182;3.160;2023-04-06T14:28:46;11.07;;;7.10;;
11921;SDS011;6021;51.182;3.160;2023-04-06T14:31:15;9.37;;;6.30;;
11921;SDS011;6021;51.182;3.160;2023-04-06T14:33:43;9.80;;;6.40;;
11921;SDS011;6021;51.182;3.160;2023-04-06T14:36:12;9.53;;;5.10;;
11921;SDS011;6021;51.182;3.160;2023-04-06T14:38:41;10.70;;;6.23;;
11921;SDS011;6021;51.182;3.160;2023-04-06T14:41:14;11.80;;;7.03;;
11921;SDS011;6021;51.182;3.160;2023-04-06T14:43:44;7.90;;;5.80;;
11921;SDS011;6021;51.182;3.160;2023-04-06T14:46:14;10.43;;;5.57;;
11921;SDS011;6021;51.182;3.160;2023-04-06T14:48:45;12.17;;;5.70;;
11921;SDS011;6021;51.182;3.160;2023-04-06T14:51:14;8.77;;;6.20;;
11921;SDS011;6021;51.182;3.160;2023-04-06T14:53:52;8.50;;;6.70;;
11921;SDS011;6021;51.182;3.160;2023-04-06T14:56:21;14.07;;;7.23;;
11921;SDS011;6021;51.182;3.160;2023-04-06T14:58:51;15.47;;;7.53;;
11921;SDS011;6021;51.182;3.160;2023-04-06T15:01:19;11.87;;;7.40;;
11921;SDS011;6021;51.182;3.160;2023-04-06T15:03:48;12.37;;;7.47;;